Don's Testing Zone


Current Conditions
weather data
source:

National Weather Service
Clear Searcy, AR
Clear, 91°F
Friday, August 18, 2017 5:56 PM CDT
Temperature: 91°F/33°C
Humidity: 56%
Barometer: 29.95inBarometer Falling
Wind: W at 5mph/7kmh
View other cities:
Searcy | Little Rock | Hot Springs | Russellville | More...
Astronomical Conditions (Clear Sky Clock)
Searcy Clear Sky Clock
    

Radar Images

NWS
    Wx Underground

NWS METAR weather data

ADDS - METARS form results





Aviation Digital Data Service (ADDS) Output produced by METARs form (2337 UTC 18 August 2017) found at http://www.aviationweather.gov/adds/metars/ 

KSRC 182256Z AUTO 20004KT 10SM CLR 33/23 A2995 RMK AO2 SLPNO T03280228

KSRC 182156Z AUTO VRB04KT 10SM CLR 33/22 A2997 RMK AO2 SLPNO T03330222

KSRC 182056Z AUTO 21008KT 10SM BKN049 33/23 A2998 RMK AO2 SLPNO T03330228 56013

KSRC 181956Z AUTO 20004KT 10SM SCT045 33/22 A2999 RMK AO2 SLPNO T03280222

KSRC 181856Z AUTO 21005KT 10SM BKN035 32/23 A3000 RMK AO2 SLPNO T03220233

KSRC 181756Z AUTO 20006KT 10SM SCT037 32/24 A3002 RMK AO2 SLPNO 6//// T03170244

KSRC 181656Z AUTO VRB04KT 10SM 31/23 A3004 RMK AO2 SLPNO T03110228